sensor_id;sensor_type;location;lat;lon;timestamp;P1;durP1;ratioP1;P2;durP2;ratioP2
54464;SDS011;40374;49.480;20.016;2022-10-29T00:02:54;90.70;;;43.78;;
54464;SDS011;40374;49.480;20.016;2022-10-29T00:05:21;95.85;;;47.10;;
54464;SDS011;40374;49.480;20.016;2022-10-29T00:07:49;79.85;;;39.85;;
54464;SDS011;40374;49.480;20.016;2022-10-29T00:10:16;103.18;;;45.17;;
54464;SDS011;40374;49.480;20.016;2022-10-29T00:12:43;101.55;;;44.80;;
54464;SDS011;40374;49.480;20.016;2022-10-29T00:15:11;93.45;;;45.17;;
54464;SDS011;40374;49.480;20.016;2022-10-29T00:17:38;92.50;;;45.05;;
54464;SDS011;40374;49.480;20.016;2022-10-29T00:20:23;97.28;;;47.60;;
54464;SDS011;40374;49.480;20.016;2022-10-29T00:22:53;142.65;;;67.78;;
54464;SDS011;40374;49.480;20.016;2022-10-29T00:25:21;102.00;;;50.10;;
54464;SDS011;40374;49.480;20.016;2022-10-29T00:28:06;92.25;;;46.03;;
54464;SDS011;40374;49.480;20.016;2022-10-29T00:30:33;106.50;;;50.65;;
54464;SDS011;40374;49.480;20.016;2022-10-29T00:33:01;104.57;;;48.88;;
54464;SDS011;40374;49.480;20.016;2022-10-29T00:35:28;98.03;;;44.63;;
54464;SDS011;40374;49.480;20.016;2022-10-29T00:37:56;96.10;;;44.15;;
54464;SDS011;40374;49.480;20.016;2022-10-29T00:40:23;128.57;;;46.85;;
54464;SDS011;40374;49.480;20.016;2022-10-29T00:42:50;148.85;;;48.05;;
54464;SDS011;40374;49.480;20.016;2022-10-29T00:45:35;289.33;;;97.25;;
54464;SDS011;40374;49.480;20.016;2022-10-29T00:48:05;194.85;;;66.45;;
54464;SDS011;40374;49.480;20.016;2022-10-29T00:50:32;230.02;;;75.43;;
54464;SDS011;40374;49.480;20.016;2022-10-29T00:53:00;268.67;;;82.47;;
54464;SDS011;40374;49.480;20.016;2022-10-29T00:55:46;261.20;;;79.70;;
54464;SDS011;40374;49.480;20.016;2022-10-29T00:58:13;217.05;;;76.00;;
54464;SDS011;40374;49.480;20.016;2022-10-29T01:00:41;247.65;;;66.68;;
54464;SDS011;40374;49.480;20.016;2022-10-29T01:03:10;195.75;;;62.80;;
54464;SDS011;40374;49.480;20.016;2022-10-29T01:05:37;266.52;;;63.53;;
54464;SDS011;40374;49.480;20.016;2022-10-29T01:08:06;297.02;;;76.07;;
54464;SDS011;40374;49.480;20.016;2022-10-29T01:16:10;312.33;;;95.72;;
54464;SDS011;40374;49.480;20.016;2022-10-29T01:21:59;252.13;;;68.30;;
54464;SDS011;40374;49.480;20.016;2022-10-29T01:24:57;245.65;;;66.40;;
54464;SDS011;40374;49.480;20.016;2022-10-29T01:36:29;290.75;;;81.00;;
54464;SDS011;40374;49.480;20.016;2022-10-29T01:42:01;499.77;;;97.43;;
54464;SDS011;40374;49.480;20.016;2022-10-29T01:47:53;324.65;;;83.72;;
54464;SDS011;40374;49.480;20.016;2022-10-29T01:50:24;268.90;;;68.90;;
54464;SDS011;40374;49.480;20.016;2022-10-29T01:52:53;231.15;;;70.00;;
54464;SDS011;40374;49.480;20.016;2022-10-29T01:55:22;246.27;;;74.40;;
54464;SDS011;40374;49.480;20.016;2022-10-29T01:58:02;337.98;;;77.90;;
54464;SDS011;40374;49.480;20.016;2022-10-29T02:14:35;303.30;;;83.13;;
54464;SDS011;40374;49.480;20.016;2022-10-29T02:17:06;336.35;;;84.13;;
54464;SDS011;40374;49.480;20.016;2022-10-29T02:19:51;358.15;;;85.30;;
54464;SDS011;40374;49.480;20.016;2022-10-29T02:22:36;454.02;;;95.20;;
54464;SDS011;40374;49.480;20.016;2022-10-29T02:25:04;393.27;;;90.07;;
54464;SDS011;40374;49.480;20.016;2022-10-29T02:27:32;445.50;;;93.03;;
54464;SDS011;40374;49.480;20.016;2022-10-29T02:30:18;451.77;;;91.68;;
54464;SDS011;40374;49.480;20.016;2022-10-29T02:32:45;414.50;;;86.43;;
54464;SDS011;40374;49.480;20.016;2022-10-29T02:35:30;453.38;;;87.60;;
54464;SDS011;40374;49.480;20.016;2022-10-29T02:38:14;362.98;;;89.22;;
54464;SDS011;40374;49.480;20.016;2022-10-29T02:40:59;460.27;;;96.75;;
54464;SDS011;40374;49.480;20.016;2022-10-29T02:43:26;440.55;;;90.18;;
54464;SDS011;40374;49.480;20.016;2022-10-29T02:46:12;342.33;;;81.70;;
54464;SDS011;40374;49.480;20.016;2022-10-29T02:48:44;440.08;;;88.35;;
54464;SDS011;40374;49.480;20.016;2022-10-29T02:51:29;528.80;;;91.80;;
54464;SDS011;40374;49.480;20.016;2022-10-29T02:53:56;380.92;;;81.97;;
54464;SDS011;40374;49.480;20.016;2022-10-29T02:56:41;343.70;;;84.40;;
54464;SDS011;40374;49.480;20.016;2022-10-29T02:59:08;317.88;;;77.25;;
54464;SDS011;40374;49.480;20.016;2022-10-29T03:01:37;302.08;;;73.90;;
54464;SDS011;40374;49.480;20.016;2022-10-29T03:04:05;298.65;;;71.35;;
54464;SDS011;40374;49.480;20.016;2022-10-29T03:06:32;276.52;;;69.22;;
54464;SDS011;40374;49.480;20.016;2022-10-29T03:09:00;279.10;;;70.25;;
54464;SDS011;40374;49.480;20.016;2022-10-29T03:11:27;278.33;;;72.38;;
54464;SDS011;40374;49.480;20.016;2022-10-29T03:13:54;249.13;;;66.65;;
54464;SDS011;40374;49.480;20.016;2022-10-29T03:16:22;253.52;;;67.57;;
54464;SDS011;40374;49.480;20.016;2022-10-29T03:18:49;244.77;;;67.68;;
54464;SDS011;40374;49.480;20.016;2022-10-29T03:21:16;353.30;;;74.28;;
54464;SDS011;40374;49.480;20.016;2022-10-29T03:24:01;357.00;;;78.50;;
54464;SDS011;40374;49.480;20.016;2022-10-29T03:26:28;374.65;;;75.57;;
54464;SDS011;40374;49.480;20.016;2022-10-29T03:29:13;542.85;;;88.45;;
54464;SDS011;40374;49.480;20.016;2022-10-29T03:31:42;451.00;;;81.78;;
54464;SDS011;40374;49.480;20.016;2022-10-29T03:34:09;401.48;;;73.90;;
54464;SDS011;40374;49.480;20.016;2022-10-29T03:36:37;551.92;;;86.13;;
54464;SDS011;40374;49.480;20.016;2022-10-29T03:39:21;454.35;;;74.32;;
54464;SDS011;40374;49.480;20.016;2022-10-29T03:41:48;444.83;;;74.95;;
54464;SDS011;40374;49.480;20.016;2022-10-29T03:44:16;419.17;;;77.50;;
54464;SDS011;40374;49.480;20.016;2022-10-29T03:46:43;384.25;;;75.68;;
54464;SDS011;40374;49.480;20.016;2022-10-29T03:49:28;316.33;;;70.13;;
54464;SDS011;40374;49.480;20.016;2022-10-29T03:51:55;270.83;;;68.43;;
54464;SDS011;40374;49.480;20.016;2022-10-29T03:54:40;302.58;;;67.50;;
54464;SDS011;40374;49.480;20.016;2022-10-29T03:57:24;283.13;;;66.32;;
54464;SDS011;40374;49.480;20.016;2022-10-29T03:59:51;292.75;;;66.10;;
54464;SDS011;40374;49.480;20.016;2022-10-29T04:02:39;367.60;;;66.07;;
54464;SDS011;40374;49.480;20.016;2022-10-29T04:05:07;293.10;;;65.80;;
54464;SDS011;40374;49.480;20.016;2022-10-29T04:07:35;400.05;;;79.00;;
54464;SDS011;40374;49.480;20.016;2022-10-29T04:10:02;484.25;;;82.28;;
54464;SDS011;40374;49.480;20.016;2022-10-29T04:12:30;401.60;;;74.65;;
54464;SDS011;40374;49.480;20.016;2022-10-29T04:14:57;421.52;;;76.43;;
54464;SDS011;40374;49.480;20.016;2022-10-29T04:17:25;361.85;;;73.65;;
54464;SDS011;40374;49.480;20.016;2022-10-29T04:19:52;317.63;;;67.78;;
54464;SDS011;40374;49.480;20.016;2022-10-29T04:22:19;214.00;;;55.33;;
54464;SDS011;40374;49.480;20.016;2022-10-29T04:25:07;227.45;;;58.53;;
54464;SDS011;40374;49.480;20.016;2022-10-29T04:27:55;253.48;;;54.10;;
54464;SDS011;40374;49.480;20.016;2022-10-29T04:30:43;286.98;;;60.55;;
54464;SDS011;40374;49.480;20.016;2022-10-29T04:33:10;290.05;;;61.42;;
54464;SDS011;40374;49.480;20.016;2022-10-29T04:35:38;241.52;;;56.53;;
54464;SDS011;40374;49.480;20.016;2022-10-29T04:38:22;193.70;;;58.55;;
54464;SDS011;40374;49.480;20.016;2022-10-29T04:40:49;177.30;;;55.88;;
54464;SDS011;40374;49.480;20.016;2022-10-29T04:43:17;261.80;;;64.05;;
54464;SDS011;40374;49.480;20.016;2022-10-29T04:45:49;179.20;;;56.17;;
54464;SDS011;40374;49.480;20.016;2022-10-29T04:48:18;267.52;;;60.80;;
54464;SDS011;40374;49.480;20.016;2022-10-29T04:50:46;242.40;;;61.05;;
54464;SDS011;40374;49.480;20.016;2022-10-29T04:53:15;195.50;;;56.85;;
54464;SDS011;40374;49.480;20.016;2022-10-29T04:55:43;190.63;;;59.85;;
54464;SDS011;40374;49.480;20.016;2022-10-29T04:58:11;222.73;;;62.20;;
54464;SDS011;40374;49.480;20.016;2022-10-29T05:00:43;180.80;;;56.47;;
54464;SDS011;40374;49.480;20.016;2022-10-29T05:03:12;185.50;;;56.25;;
54464;SDS011;40374;49.480;20.016;2022-10-29T05:05:40;197.88;;;54.35;;
54464;SDS011;40374;49.480;20.016;2022-10-29T05:08:08;195.50;;;56.22;;
54464;SDS011;40374;49.480;20.016;2022-10-29T05:10:37;288.17;;;63.97;;
54464;SDS011;40374;49.480;20.016;2022-10-29T05:13:07;189.70;;;57.30;;
54464;SDS011;40374;49.480;20.016;2022-10-29T05:15:37;308.40;;;65.10;;
54464;SDS011;40374;49.480;20.016;2022-10-29T05:18:06;306.13;;;69.93;;
54464;SDS011;40374;49.480;20.016;2022-10-29T05:20:34;293.42;;;71.40;;
54464;SDS011;40374;49.480;20.016;2022-10-29T05:23:03;256.52;;;66.28;;
54464;SDS011;40374;49.480;20.016;2022-10-29T05:25:32;243.82;;;68.13;;
54464;SDS011;40374;49.480;20.016;2022-10-29T05:28:02;269.00;;;69.70;;
54464;SDS011;40374;49.480;20.016;2022-10-29T05:30:38;257.02;;;73.95;;
54464;SDS011;40374;49.480;20.016;2022-10-29T05:33:07;256.08;;;76.95;;
54464;SDS011;40374;49.480;20.016;2022-10-29T05:35:53;205.13;;;65.45;;
54464;SDS011;40374;49.480;20.016;2022-10-29T05:38:20;195.23;;;63.95;;
54464;SDS011;40374;49.480;20.016;2022-10-29T05:40:48;229.82;;;69.00;;
54464;SDS011;40374;49.480;20.016;2022-10-29T05:43:16;234.18;;;69.28;;
54464;SDS011;40374;49.480;20.016;2022-10-29T05:45:44;198.35;;;65.35;;
54464;SDS011;40374;49.480;20.016;2022-10-29T05:48:30;197.95;;;66.45;;
54464;SDS011;40374;49.480;20.016;2022-10-29T05:50:57;215.75;;;71.35;;
54464;SDS011;40374;49.480;20.016;2022-10-29T05:53:25;185.50;;;67.47;;
54464;SDS011;40374;49.480;20.016;2022-10-29T05:55:52;192.13;;;65.55;;
54464;SDS011;40374;49.480;20.016;2022-10-29T05:58:19;169.25;;;62.05;;
54464;SDS011;40374;49.480;20.016;2022-10-29T06:01:04;208.48;;;64.55;;
54464;SDS011;40374;49.480;20.016;2022-10-29T06:03:34;182.80;;;61.25;;
54464;SDS011;40374;49.480;20.016;2022-10-29T06:06:20;194.13;;;63.53;;
54464;SDS011;40374;49.480;20.016;2022-10-29T06:08:47;359.08;;;105.60;;
54464;SDS011;40374;49.480;20.016;2022-10-29T06:11:15;242.65;;;80.30;;
54464;SDS011;40374;49.480;20.016;2022-10-29T06:14:00;215.82;;;76.82;;
54464;SDS011;40374;49.480;20.016;2022-10-29T06:16:27;211.93;;;71.38;;
54464;SDS011;40374;49.480;20.016;2022-10-29T06:19:12;283.23;;;92.13;;
54464;SDS011;40374;49.480;20.016;2022-10-29T06:21:39;115.13;;;47.42;;
54464;SDS011;40374;49.480;20.016;2022-10-29T06:24:07;72.88;;;34.70;;
54464;SDS011;40374;49.480;20.016;2022-10-29T06:26:36;62.15;;;31.20;;
54464;SDS011;40374;49.480;20.016;2022-10-29T06:29:03;53.03;;;27.77;;
54464;SDS011;40374;49.480;20.016;2022-10-29T06:31:30;60.47;;;29.85;;
54464;SDS011;40374;49.480;20.016;2022-10-29T06:33:58;52.67;;;26.75;;
54464;SDS011;40374;49.480;20.016;2022-10-29T06:36:26;48.42;;;24.60;;
54464;SDS011;40374;49.480;20.016;2022-10-29T06:38:53;61.38;;;29.60;;
54464;SDS011;40374;49.480;20.016;2022-10-29T06:41:38;49.22;;;25.02;;
54464;SDS011;40374;49.480;20.016;2022-10-29T06:44:06;55.45;;;24.55;;
54464;SDS011;40374;49.480;20.016;2022-10-29T06:46:33;39.75;;;21.52;;
54464;SDS011;40374;49.480;20.016;2022-10-29T06:49:01;33.53;;;17.88;;
54464;SDS011;40374;49.480;20.016;2022-10-29T06:51:46;74.95;;;29.02;;
54464;SDS011;40374;49.480;20.016;2022-10-29T06:54:17;142.45;;;47.85;;
54464;SDS011;40374;49.480;20.016;2022-10-29T06:57:01;93.22;;;34.55;;
54464;SDS011;40374;49.480;20.016;2022-10-29T06:59:29;100.53;;;39.85;;
54464;SDS011;40374;49.480;20.016;2022-10-29T07:01:56;74.50;;;35.47;;
54464;SDS011;40374;49.480;20.016;2022-10-29T07:04:41;64.38;;;30.45;;
54464;SDS011;40374;49.480;20.016;2022-10-29T07:07:27;91.90;;;35.05;;
54464;SDS011;40374;49.480;20.016;2022-10-29T07:09:55;73.82;;;30.13;;
54464;SDS011;40374;49.480;20.016;2022-10-29T07:12:24;57.58;;;27.42;;
54464;SDS011;40374;49.480;20.016;2022-10-29T07:15:09;44.03;;;23.58;;
54464;SDS011;40374;49.480;20.016;2022-10-29T07:17:38;53.88;;;25.13;;
54464;SDS011;40374;49.480;20.016;2022-10-29T07:20:23;63.65;;;32.90;;
54464;SDS011;40374;49.480;20.016;2022-10-29T07:22:51;96.00;;;41.85;;
54464;SDS011;40374;49.480;20.016;2022-10-29T07:25:18;132.88;;;47.67;;
54464;SDS011;40374;49.480;20.016;2022-10-29T07:27:46;120.47;;;44.63;;
54464;SDS011;40374;49.480;20.016;2022-10-29T07:30:14;118.15;;;49.67;;
54464;SDS011;40374;49.480;20.016;2022-10-29T07:32:43;100.93;;;45.38;;
54464;SDS011;40374;49.480;20.016;2022-10-29T07:35:10;70.72;;;32.55;;
54464;SDS011;40374;49.480;20.016;2022-10-29T07:37:59;62.17;;;27.85;;
54464;SDS011;40374;49.480;20.016;2022-10-29T07:40:34;59.45;;;28.85;;
54464;SDS011;40374;49.480;20.016;2022-10-29T07:43:03;85.18;;;35.83;;
54464;SDS011;40374;49.480;20.016;2022-10-29T07:45:30;66.05;;;30.27;;
54464;SDS011;40374;49.480;20.016;2022-10-29T07:47:59;55.58;;;26.17;;
54464;SDS011;40374;49.480;20.016;2022-10-29T07:50:29;45.92;;;22.52;;
54464;SDS011;40374;49.480;20.016;2022-10-29T07:53:01;35.83;;;18.02;;
54464;SDS011;40374;49.480;20.016;2022-10-29T07:55:30;28.95;;;14.05;;
54464;SDS011;40374;49.480;20.016;2022-10-29T07:57:58;33.63;;;19.00;;
54464;SDS011;40374;49.480;20.016;2022-10-29T08:00:45;32.17;;;17.90;;
54464;SDS011;40374;49.480;20.016;2022-10-29T08:03:13;41.20;;;21.20;;
54464;SDS011;40374;49.480;20.016;2022-10-29T08:05:41;34.20;;;15.68;;
54464;SDS011;40374;49.480;20.016;2022-10-29T08:08:29;23.27;;;14.13;;
54464;SDS011;40374;49.480;20.016;2022-10-29T08:11:00;23.83;;;11.13;;
54464;SDS011;40374;49.480;20.016;2022-10-29T08:13:28;21.98;;;11.60;;
54464;SDS011;40374;49.480;20.016;2022-10-29T08:15:56;21.52;;;10.07;;
54464;SDS011;40374;49.480;20.016;2022-10-29T08:18:41;52.38;;;18.88;;
54464;SDS011;40374;49.480;20.016;2022-10-29T08:21:08;47.60;;;18.98;;
54464;SDS011;40374;49.480;20.016;2022-10-29T08:23:53;26.35;;;15.50;;
54464;SDS011;40374;49.480;20.016;2022-10-29T08:26:23;32.15;;;16.98;;
54464;SDS011;40374;49.480;20.016;2022-10-29T08:28:50;32.55;;;17.40;;
54464;SDS011;40374;49.480;20.016;2022-10-29T08:31:18;28.05;;;15.48;;
54464;SDS011;40374;49.480;20.016;2022-10-29T08:33:48;27.52;;;16.33;;
54464;SDS011;40374;49.480;20.016;2022-10-29T08:36:15;34.92;;;16.25;;
54464;SDS011;40374;49.480;20.016;2022-10-29T08:38:43;32.60;;;17.23;;
54464;SDS011;40374;49.480;20.016;2022-10-29T08:41:51;31.83;;;16.38;;
54464;SDS011;40374;49.480;20.016;2022-10-29T08:44:47;52.97;;;26.33;;
54464;SDS011;40374;49.480;20.016;2022-10-29T08:47:18;44.97;;;21.30;;
54464;SDS011;40374;49.480;20.016;2022-10-29T08:52:27;35.60;;;16.88;;
54464;SDS011;40374;49.480;20.016;2022-10-29T08:55:19;34.63;;;14.45;;
54464;SDS011;40374;49.480;20.016;2022-10-29T08:58:01;36.67;;;17.67;;
54464;SDS011;40374;49.480;20.016;2022-10-29T09:00:58;29.30;;;12.93;;
54464;SDS011;40374;49.480;20.016;2022-10-29T09:03:43;23.08;;;10.68;;
54464;SDS011;40374;49.480;20.016;2022-10-29T09:11:39;15.80;;;7.88;;
54464;SDS011;40374;49.480;20.016;2022-10-29T09:19:58;15.20;;;5.82;;
54464;SDS011;40374;49.480;20.016;2022-10-29T09:28:18;15.60;;;6.10;;
54464;SDS011;40374;49.480;20.016;2022-10-29T09:33:54;12.25;;;6.00;;
54464;SDS011;40374;49.480;20.016;2022-10-29T09:36:44;12.70;;;5.53;;
54464;SDS011;40374;49.480;20.016;2022-10-29T09:39:14;16.77;;;5.63;;
54464;SDS011;40374;49.480;20.016;2022-10-29T09:41:57;15.65;;;6.25;;
54464;SDS011;40374;49.480;20.016;2022-10-29T09:44:31;9.25;;;5.22;;
54464;SDS011;40374;49.480;20.016;2022-10-29T09:47:15;18.45;;;6.13;;
54464;SDS011;40374;49.480;20.016;2022-10-29T09:52:58;13.38;;;6.45;;
54464;SDS011;40374;49.480;20.016;2022-10-29T09:55:42;15.60;;;5.68;;
54464;SDS011;40374;49.480;20.016;2022-10-29T09:58:17;15.85;;;5.80;;
54464;SDS011;40374;49.480;20.016;2022-10-29T10:00:47;11.77;;;5.43;;
54464;SDS011;40374;49.480;20.016;2022-10-29T10:03:17;11.23;;;5.95;;
54464;SDS011;40374;49.480;20.016;2022-10-29T10:09:04;12.60;;;5.57;;
54464;SDS011;40374;49.480;20.016;2022-10-29T10:11:49;14.57;;;6.38;;
54464;SDS011;40374;49.480;20.016;2022-10-29T10:14:20;9.80;;;5.68;;
54464;SDS011;40374;49.480;20.016;2022-10-29T10:17:07;16.25;;;6.35;;
54464;SDS011;40374;49.480;20.016;2022-10-29T10:19:35;12.40;;;5.07;;
54464;SDS011;40374;49.480;20.016;2022-10-29T10:22:16;11.50;;;5.40;;
54464;SDS011;40374;49.480;20.016;2022-10-29T10:24:46;13.68;;;4.88;;
54464;SDS011;40374;49.480;20.016;2022-10-29T10:30:19;10.93;;;5.30;;
54464;SDS011;40374;49.480;20.016;2022-10-29T10:32:49;9.35;;;4.90;;
54464;SDS011;40374;49.480;20.016;2022-10-29T10:35:24;15.98;;;5.85;;
54464;SDS011;40374;49.480;20.016;2022-10-29T10:37:58;10.38;;;4.53;;
54464;SDS011;40374;49.480;20.016;2022-10-29T10:43:02;13.68;;;4.82;;
54464;SDS011;40374;49.480;20.016;2022-10-29T10:45:35;11.40;;;5.25;;
54464;SDS011;40374;49.480;20.016;2022-10-29T10:48:08;15.52;;;5.80;;
54464;SDS011;40374;49.480;20.016;2022-10-29T10:51:12;12.30;;;4.53;;
54464;SDS011;40374;49.480;20.016;2022-10-29T10:53:52;15.25;;;5.28;;
54464;SDS011;40374;49.480;20.016;2022-10-29T10:56:20;18.23;;;6.03;;
54464;SDS011;40374;49.480;20.016;2022-10-29T10:58:55;19.80;;;5.72;;
54464;SDS011;40374;49.480;20.016;2022-10-29T11:01:44;8.65;;;4.47;;
54464;SDS011;40374;49.480;20.016;2022-10-29T11:07:18;11.40;;;3.83;;
54464;SDS011;40374;49.480;20.016;2022-10-29T11:10:05;13.60;;;3.88;;
54464;SDS011;40374;49.480;20.016;2022-10-29T11:12:41;9.50;;;3.13;;
54464;SDS011;40374;49.480;20.016;2022-10-29T11:18:15;10.75;;;3.08;;
54464;SDS011;40374;49.480;20.016;2022-10-29T11:20:49;9.43;;;2.83;;
54464;SDS011;40374;49.480;20.016;2022-10-29T11:27:01;5.45;;;2.60;;
54464;SDS011;40374;49.480;20.016;2022-10-29T11:29:44;15.50;;;3.47;;
54464;SDS011;40374;49.480;20.016;2022-10-29T11:32:19;9.57;;;2.60;;
54464;SDS011;40374;49.480;20.016;2022-10-29T11:43:17;7.45;;;2.95;;
54464;SDS011;40374;49.480;20.016;2022-10-29T11:45:50;12.20;;;2.53;;
54464;SDS011;40374;49.480;20.016;2022-10-29T11:51:32;10.43;;;2.83;;
54464;SDS011;40374;49.480;20.016;2022-10-29T12:00:11;10.43;;;2.85;;
54464;SDS011;40374;49.480;20.016;2022-10-29T12:02:57;11.00;;;3.15;;
54464;SDS011;40374;49.480;20.016;2022-10-29T12:05:41;12.82;;;2.47;;
54464;SDS011;40374;49.480;20.016;2022-10-29T12:11:10;15.85;;;2.88;;
54464;SDS011;40374;49.480;20.016;2022-10-29T12:28:28;11.98;;;2.60;;
54464;SDS011;40374;49.480;20.016;2022-10-29T12:40:36;24.05;;;7.00;;
54464;SDS011;40374;49.480;20.016;2022-10-29T12:43:11;12.80;;;3.40;;
54464;SDS011;40374;49.480;20.016;2022-10-29T12:54:15;12.23;;;3.05;;
54464;SDS011;40374;49.480;20.016;2022-10-29T12:56:53;15.20;;;2.95;;
54464;SDS011;40374;49.480;20.016;2022-10-29T13:01:50;181.68;;;91.57;;
54464;SDS011;40374;49.480;20.016;2022-10-29T13:04:38;85.80;;;42.03;;
54464;SDS011;40374;49.480;20.016;2022-10-29T13:15:26;118.63;;;54.15;;
54464;SDS011;40374;49.480;20.016;2022-10-29T13:18:04;80.20;;;34.97;;
54464;SDS011;40374;49.480;20.016;2022-10-29T13:20:53;27.08;;;6.93;;
54464;SDS011;40374;49.480;20.016;2022-10-29T13:25:52;19.67;;;4.43;;
54464;SDS011;40374;49.480;20.016;2022-10-29T13:31:41;20.30;;;4.27;;
54464;SDS011;40374;49.480;20.016;2022-10-29T13:41:36;34.08;;;14.40;;
54464;SDS011;40374;49.480;20.016;2022-10-29T13:44:19;19.55;;;9.85;;
54464;SDS011;40374;49.480;20.016;2022-10-29T13:49:32;22.65;;;7.68;;
54464;SDS011;40374;49.480;20.016;2022-10-29T13:52:17;14.20;;;5.15;;
54464;SDS011;40374;49.480;20.016;2022-10-29T13:55:07;14.70;;;4.40;;
54464;SDS011;40374;49.480;20.016;2022-10-29T13:58:03;14.25;;;6.30;;
54464;SDS011;40374;49.480;20.016;2022-10-29T14:00:35;15.35;;;4.97;;
54464;SDS011;40374;49.480;20.016;2022-10-29T14:03:20;17.77;;;6.13;;
54464;SDS011;40374;49.480;20.016;2022-10-29T14:06:02;19.85;;;5.80;;
54464;SDS011;40374;49.480;20.016;2022-10-29T14:11:38;9.77;;;2.67;;
54464;SDS011;40374;49.480;20.016;2022-10-29T14:14:54;17.58;;;3.67;;
54464;SDS011;40374;49.480;20.016;2022-10-29T14:19:41;13.10;;;4.35;;
54464;SDS011;40374;49.480;20.016;2022-10-29T14:22:28;17.98;;;4.70;;
54464;SDS011;40374;49.480;20.016;2022-10-29T14:25:00;16.52;;;5.20;;
54464;SDS011;40374;49.480;20.016;2022-10-29T14:27:29;19.58;;;6.25;;
54464;SDS011;40374;49.480;20.016;2022-10-29T14:30:17;19.83;;;6.20;;
54464;SDS011;40374;49.480;20.016;2022-10-29T14:32:46;18.42;;;6.25;;
54464;SDS011;40374;49.480;20.016;2022-10-29T14:35:31;23.52;;;6.00;;
54464;SDS011;40374;49.480;20.016;2022-10-29T14:37:59;15.98;;;5.85;;
54464;SDS011;40374;49.480;20.016;2022-10-29T14:40:27;25.13;;;6.75;;
54464;SDS011;40374;49.480;20.016;2022-10-29T14:42:55;40.17;;;10.60;;
54464;SDS011;40374;49.480;20.016;2022-10-29T14:45:25;29.48;;;9.77;;
54464;SDS011;40374;49.480;20.016;2022-10-29T14:47:58;27.08;;;9.55;;
54464;SDS011;40374;49.480;20.016;2022-10-29T14:50:29;17.60;;;5.93;;
54464;SDS011;40374;49.480;20.016;2022-10-29T14:52:58;18.60;;;5.03;;
54464;SDS011;40374;49.480;20.016;2022-10-29T14:55:32;18.50;;;6.28;;
54464;SDS011;40374;49.480;20.016;2022-10-29T14:58:13;22.27;;;7.70;;
54464;SDS011;40374;49.480;20.016;2022-10-29T15:00:57;28.48;;;9.77;;
54464;SDS011;40374;49.480;20.016;2022-10-29T15:03:28;39.65;;;17.30;;
54464;SDS011;40374;49.480;20.016;2022-10-29T15:06:12;26.55;;;8.82;;
54464;SDS011;40374;49.480;20.016;2022-10-29T15:08:54;24.35;;;11.00;;
54464;SDS011;40374;49.480;20.016;2022-10-29T15:14:25;32.03;;;14.57;;
54464;SDS011;40374;49.480;20.016;2022-10-29T15:17:21;40.72;;;15.05;;
54464;SDS011;40374;49.480;20.016;2022-10-29T15:19:55;36.00;;;14.18;;
54464;SDS011;40374;49.480;20.016;2022-10-29T15:22:36;85.57;;;35.60;;
54464;SDS011;40374;49.480;20.016;2022-10-29T15:25:06;63.03;;;30.88;;
54464;SDS011;40374;49.480;20.016;2022-10-29T15:27:39;67.78;;;32.45;;
54464;SDS011;40374;49.480;20.016;2022-10-29T15:30:16;41.47;;;18.17;;
54464;SDS011;40374;49.480;20.016;2022-10-29T15:32:46;21.52;;;11.27;;
54464;SDS011;40374;49.480;20.016;2022-10-29T15:35:18;24.40;;;9.60;;
54464;SDS011;40374;49.480;20.016;2022-10-29T15:37:48;28.70;;;9.00;;
54464;SDS011;40374;49.480;20.016;2022-10-29T15:40:18;25.08;;;8.45;;
54464;SDS011;40374;49.480;20.016;2022-10-29T15:43:28;25.48;;;8.00;;
54464;SDS011;40374;49.480;20.016;2022-10-29T15:45:56;21.20;;;7.55;;
54464;SDS011;40374;49.480;20.016;2022-10-29T15:51:02;24.65;;;6.90;;
54464;SDS011;40374;49.480;20.016;2022-10-29T15:53:47;17.92;;;5.63;;
54464;SDS011;40374;49.480;20.016;2022-10-29T15:56:15;23.80;;;7.65;;
54464;SDS011;40374;49.480;20.016;2022-10-29T15:58:48;22.98;;;10.02;;
54464;SDS011;40374;49.480;20.016;2022-10-29T16:01:18;26.25;;;10.68;;
54464;SDS011;40374;49.480;20.016;2022-10-29T16:04:03;28.50;;;13.32;;
54464;SDS011;40374;49.480;20.016;2022-10-29T16:06:31;41.88;;;19.52;;
54464;SDS011;40374;49.480;20.016;2022-10-29T16:09:17;25.08;;;12.50;;
54464;SDS011;40374;49.480;20.016;2022-10-29T16:12:03;24.95;;;8.15;;
54464;SDS011;40374;49.480;20.016;2022-10-29T16:14:31;15.30;;;6.38;;
54464;SDS011;40374;49.480;20.016;2022-10-29T16:17:01;19.50;;;6.68;;
54464;SDS011;40374;49.480;20.016;2022-10-29T16:19:28;24.60;;;6.72;;
54464;SDS011;40374;49.480;20.016;2022-10-29T16:21:56;24.92;;;10.32;;
54464;SDS011;40374;49.480;20.016;2022-10-29T16:24:41;30.42;;;11.02;;
54464;SDS011;40374;49.480;20.016;2022-10-29T16:27:13;35.22;;;11.93;;
54464;SDS011;40374;49.480;20.016;2022-10-29T16:29:43;28.92;;;11.43;;
54464;SDS011;40374;49.480;20.016;2022-10-29T16:32:13;34.47;;;15.05;;
54464;SDS011;40374;49.480;20.016;2022-10-29T16:34:51;37.00;;;13.93;;
54464;SDS011;40374;49.480;20.016;2022-10-29T16:37:19;39.80;;;13.75;;
54464;SDS011;40374;49.480;20.016;2022-10-29T16:39:47;25.00;;;12.32;;
54464;SDS011;40374;49.480;20.016;2022-10-29T16:42:33;35.38;;;13.20;;
54464;SDS011;40374;49.480;20.016;2022-10-29T16:45:03;34.30;;;12.55;;
54464;SDS011;40374;49.480;20.016;2022-10-29T16:47:32;27.60;;;11.98;;
54464;SDS011;40374;49.480;20.016;2022-10-29T16:50:00;26.92;;;11.93;;
54464;SDS011;40374;49.480;20.016;2022-10-29T16:52:45;34.70;;;11.50;;
54464;SDS011;40374;49.480;20.016;2022-10-29T16:55:13;35.65;;;16.15;;
54464;SDS011;40374;49.480;20.016;2022-10-29T16:57:41;33.30;;;14.38;;
54464;SDS011;40374;49.480;20.016;2022-10-29T17:00:09;33.25;;;15.48;;
54464;SDS011;40374;49.480;20.016;2022-10-29T17:02:37;31.63;;;13.57;;
54464;SDS011;40374;49.480;20.016;2022-10-29T17:05:06;54.65;;;23.13;;
54464;SDS011;40374;49.480;20.016;2022-10-29T17:07:34;61.80;;;24.52;;
54464;SDS011;40374;49.480;20.016;2022-10-29T17:10:02;45.83;;;20.70;;
54464;SDS011;40374;49.480;20.016;2022-10-29T17:12:32;49.38;;;22.30;;
54464;SDS011;40374;49.480;20.016;2022-10-29T17:15:00;62.30;;;28.05;;
54464;SDS011;40374;49.480;20.016;2022-10-29T17:17:28;45.97;;;19.95;;
54464;SDS011;40374;49.480;20.016;2022-10-29T17:20:14;47.45;;;19.67;;
54464;SDS011;40374;49.480;20.016;2022-10-29T17:22:42;51.00;;;25.67;;
54464;SDS011;40374;49.480;20.016;2022-10-29T17:25:10;58.28;;;27.70;;
54464;SDS011;40374;49.480;20.016;2022-10-29T17:27:40;59.53;;;30.98;;
54464;SDS011;40374;49.480;20.016;2022-10-29T17:30:23;78.87;;;35.53;;
54464;SDS011;40374;49.480;20.016;2022-10-29T17:32:53;56.78;;;25.60;;
54464;SDS011;40374;49.480;20.016;2022-10-29T17:35:20;42.83;;;16.80;;
54464;SDS011;40374;49.480;20.016;2022-10-29T17:37:48;37.95;;;17.95;;
54464;SDS011;40374;49.480;20.016;2022-10-29T17:40:16;40.78;;;17.25;;
54464;SDS011;40374;49.480;20.016;2022-10-29T17:42:43;50.58;;;23.02;;